sensor_id;sensor_type;location;lat;lon;timestamp;P1;durP1;ratioP1;P2;durP2;ratioP2
20480;SDS011;10399;50.754;3.366;2023-04-25T00:02:24;27.77;;;11.75;;
20480;SDS011;10399;50.754;3.366;2023-04-25T00:04:51;21.80;;;8.95;;
20480;SDS011;10399;50.754;3.366;2023-04-25T00:07:24;21.73;;;7.68;;
20480;SDS011;10399;50.754;3.366;2023-04-25T00:09:51;26.02;;;8.73;;
20480;SDS011;10399;50.754;3.366;2023-04-25T00:12:18;25.92;;;9.60;;
20480;SDS011;10399;50.754;3.366;2023-04-25T00:14:46;22.45;;;10.25;;
20480;SDS011;10399;50.754;3.366;2023-04-25T00:17:13;30.42;;;11.25;;
20480;SDS011;10399;50.754;3.366;2023-04-25T00:19:40;30.13;;;11.98;;
20480;SDS011;10399;50.754;3.366;2023-04-25T00:22:07;29.17;;;11.57;;
20480;SDS011;10399;50.754;3.366;2023-04-25T00:24:34;24.55;;;11.55;;
20480;SDS011;10399;50.754;3.366;2023-04-25T00:27:01;25.35;;;10.30;;
20480;SDS011;10399;50.754;3.366;2023-04-25T00:29:28;23.00;;;8.82;;
20480;SDS011;10399;50.754;3.366;2023-04-25T00:31:55;20.95;;;8.15;;
20480;SDS011;10399;50.754;3.366;2023-04-25T00:34:22;18.77;;;8.38;;
20480;SDS011;10399;50.754;3.366;2023-04-25T00:36:48;26.15;;;8.88;;
20480;SDS011;10399;50.754;3.366;2023-04-25T00:39:16;19.77;;;7.75;;
20480;SDS011;10399;50.754;3.366;2023-04-25T00:41:42;21.73;;;7.20;;
20480;SDS011;10399;50.754;3.366;2023-04-25T00:44:10;21.30;;;8.65;;
20480;SDS011;10399;50.754;3.366;2023-04-25T00:46:38;25.55;;;8.55;;
20480;SDS011;10399;50.754;3.366;2023-04-25T00:49:06;27.83;;;10.43;;
20480;SDS011;10399;50.754;3.366;2023-04-25T00:51:33;31.98;;;11.23;;
20480;SDS011;10399;50.754;3.366;2023-04-25T00:54:00;28.58;;;10.57;;
20480;SDS011;10399;50.754;3.366;2023-04-25T00:56:27;25.65;;;11.35;;
20480;SDS011;10399;50.754;3.366;2023-04-25T00:58:54;25.13;;;9.80;;
20480;SDS011;10399;50.754;3.366;2023-04-25T01:01:22;29.52;;;11.50;;
20480;SDS011;10399;50.754;3.366;2023-04-25T01:03:50;29.55;;;10.82;;
20480;SDS011;10399;50.754;3.366;2023-04-25T01:06:20;25.73;;;9.43;;
20480;SDS011;10399;50.754;3.366;2023-04-25T01:08:48;20.55;;;7.57;;
20480;SDS011;10399;50.754;3.366;2023-04-25T01:11:15;23.25;;;8.85;;
20480;SDS011;10399;50.754;3.366;2023-04-25T01:13:43;24.65;;;9.40;;
20480;SDS011;10399;50.754;3.366;2023-04-25T01:16:10;28.13;;;7.53;;
20480;SDS011;10399;50.754;3.366;2023-04-25T01:18:40;19.30;;;7.47;;
20480;SDS011;10399;50.754;3.366;2023-04-25T01:21:09;21.10;;;7.78;;
20480;SDS011;10399;50.754;3.366;2023-04-25T01:23:37;24.50;;;7.75;;
20480;SDS011;10399;50.754;3.366;2023-04-25T01:26:06;28.58;;;8.27;;
20480;SDS011;10399;50.754;3.366;2023-04-25T01:28:36;33.80;;;11.43;;
20480;SDS011;10399;50.754;3.366;2023-04-25T01:31:08;37.35;;;9.35;;
20480;SDS011;10399;50.754;3.366;2023-04-25T01:33:35;18.52;;;5.63;;
20480;SDS011;10399;50.754;3.366;2023-04-25T01:36:02;28.23;;;8.60;;
20480;SDS011;10399;50.754;3.366;2023-04-25T01:38:29;23.40;;;7.40;;
20480;SDS011;10399;50.754;3.366;2023-04-25T01:40:57;24.95;;;6.82;;
20480;SDS011;10399;50.754;3.366;2023-04-25T01:43:24;22.90;;;9.00;;
20480;SDS011;10399;50.754;3.366;2023-04-25T01:45:52;21.55;;;6.68;;
20480;SDS011;10399;50.754;3.366;2023-04-25T01:48:19;25.30;;;6.60;;
20480;SDS011;10399;50.754;3.366;2023-04-25T01:50:47;16.50;;;6.47;;
20480;SDS011;10399;50.754;3.366;2023-04-25T01:53:14;18.20;;;5.32;;
20480;SDS011;10399;50.754;3.366;2023-04-25T01:55:41;17.40;;;4.68;;
20480;SDS011;10399;50.754;3.366;2023-04-25T01:58:08;16.23;;;4.43;;
20480;SDS011;10399;50.754;3.366;2023-04-25T02:00:36;18.00;;;4.88;;
20480;SDS011;10399;50.754;3.366;2023-04-25T02:03:07;14.05;;;4.88;;
20480;SDS011;10399;50.754;3.366;2023-04-25T02:05:35;13.07;;;4.75;;
20480;SDS011;10399;50.754;3.366;2023-04-25T02:08:04;19.50;;;5.20;;
20480;SDS011;10399;50.754;3.366;2023-04-25T02:10:33;15.13;;;4.50;;
20480;SDS011;10399;50.754;3.366;2023-04-25T02:13:01;23.27;;;5.43;;
20480;SDS011;10399;50.754;3.366;2023-04-25T02:15:28;20.85;;;5.72;;
20480;SDS011;10399;50.754;3.366;2023-04-25T02:17:55;20.85;;;6.80;;
20480;SDS011;10399;50.754;3.366;2023-04-25T02:20:22;25.50;;;7.18;;
20480;SDS011;10399;50.754;3.366;2023-04-25T02:22:50;20.80;;;6.65;;
20480;SDS011;10399;50.754;3.366;2023-04-25T02:25:18;25.92;;;6.57;;
20480;SDS011;10399;50.754;3.366;2023-04-25T02:27:46;26.02;;;8.73;;
20480;SDS011;10399;50.754;3.366;2023-04-25T02:30:14;20.17;;;5.80;;
20480;SDS011;10399;50.754;3.366;2023-04-25T02:32:41;25.98;;;5.70;;
20480;SDS011;10399;50.754;3.366;2023-04-25T02:35:09;18.27;;;6.40;;
20480;SDS011;10399;50.754;3.366;2023-04-25T02:37:36;19.15;;;6.45;;
20480;SDS011;10399;50.754;3.366;2023-04-25T02:40:04;22.13;;;5.65;;
20480;SDS011;10399;50.754;3.366;2023-04-25T02:42:32;23.50;;;5.75;;
20480;SDS011;10399;50.754;3.366;2023-04-25T02:44:59;18.85;;;5.93;;
20480;SDS011;10399;50.754;3.366;2023-04-25T02:47:26;19.40;;;6.25;;
20480;SDS011;10399;50.754;3.366;2023-04-25T02:49:53;20.05;;;5.60;;
20480;SDS011;10399;50.754;3.366;2023-04-25T02:52:20;20.90;;;5.82;;
20480;SDS011;10399;50.754;3.366;2023-04-25T02:54:47;22.70;;;6.70;;
20480;SDS011;10399;50.754;3.366;2023-04-25T02:57:14;17.08;;;5.75;;
20480;SDS011;10399;50.754;3.366;2023-04-25T02:59:41;18.02;;;6.15;;
20480;SDS011;10399;50.754;3.366;2023-04-25T03:02:09;20.48;;;5.65;;
20480;SDS011;10399;50.754;3.366;2023-04-25T03:04:36;23.70;;;6.57;;
20480;SDS011;10399;50.754;3.366;2023-04-25T03:07:04;26.42;;;5.85;;
20480;SDS011;10399;50.754;3.366;2023-04-25T03:09:32;21.80;;;5.40;;
20480;SDS011;10399;50.754;3.366;2023-04-25T03:11:59;17.30;;;5.55;;
20480;SDS011;10399;50.754;3.366;2023-04-25T03:14:26;18.40;;;5.30;;
20480;SDS011;10399;50.754;3.366;2023-04-25T03:16:53;13.65;;;4.60;;
20480;SDS011;10399;50.754;3.366;2023-04-25T03:19:20;16.67;;;5.50;;
20480;SDS011;10399;50.754;3.366;2023-04-25T03:21:47;21.98;;;6.22;;
20480;SDS011;10399;50.754;3.366;2023-04-25T03:24:14;17.70;;;5.20;;
20480;SDS011;10399;50.754;3.366;2023-04-25T03:26:41;18.00;;;5.50;;
20480;SDS011;10399;50.754;3.366;2023-04-25T03:29:08;17.92;;;6.03;;
20480;SDS011;10399;50.754;3.366;2023-04-25T03:31:35;19.55;;;5.55;;
20480;SDS011;10399;50.754;3.366;2023-04-25T03:34:02;19.55;;;5.82;;
20480;SDS011;10399;50.754;3.366;2023-04-25T03:36:30;17.90;;;6.07;;
20480;SDS011;10399;50.754;3.366;2023-04-25T03:38:57;15.65;;;5.68;;
20480;SDS011;10399;50.754;3.366;2023-04-25T03:41:24;16.60;;;6.30;;
20480;SDS011;10399;50.754;3.366;2023-04-25T03:43:51;19.30;;;5.97;;
20480;SDS011;10399;50.754;3.366;2023-04-25T03:46:18;16.98;;;4.93;;
20480;SDS011;10399;50.754;3.366;2023-04-25T03:48:46;16.98;;;5.30;;
20480;SDS011;10399;50.754;3.366;2023-04-25T03:51:13;19.20;;;5.47;;
20480;SDS011;10399;50.754;3.366;2023-04-25T03:53:40;16.42;;;5.70;;
20480;SDS011;10399;50.754;3.366;2023-04-25T03:56:07;21.00;;;6.57;;
20480;SDS011;10399;50.754;3.366;2023-04-25T03:58:33;21.17;;;5.40;;
20480;SDS011;10399;50.754;3.366;2023-04-25T04:01:00;16.48;;;5.32;;
20480;SDS011;10399;50.754;3.366;2023-04-25T04:03:34;17.85;;;5.40;;
20480;SDS011;10399;50.754;3.366;2023-04-25T04:06:03;18.02;;;5.00;;
20480;SDS011;10399;50.754;3.366;2023-04-25T04:08:32;15.10;;;4.85;;
20480;SDS011;10399;50.754;3.366;2023-04-25T04:10:59;25.15;;;5.97;;
20480;SDS011;10399;50.754;3.366;2023-04-25T04:13:27;16.20;;;5.82;;
20480;SDS011;10399;50.754;3.366;2023-04-25T04:15:54;23.70;;;6.07;;
20480;SDS011;10399;50.754;3.366;2023-04-25T04:18:22;15.20;;;5.77;;
20480;SDS011;10399;50.754;3.366;2023-04-25T04:20:49;14.68;;;4.88;;
20480;SDS011;10399;50.754;3.366;2023-04-25T04:23:16;10.75;;;4.35;;
20480;SDS011;10399;50.754;3.366;2023-04-25T04:25:43;15.43;;;4.80;;
20480;SDS011;10399;50.754;3.366;2023-04-25T04:28:11;14.52;;;5.13;;
20480;SDS011;10399;50.754;3.366;2023-04-25T04:30:39;18.85;;;5.28;;
20480;SDS011;10399;50.754;3.366;2023-04-25T04:33:08;18.65;;;5.78;;
20480;SDS011;10399;50.754;3.366;2023-04-25T04:35:35;17.90;;;4.57;;
20480;SDS011;10399;50.754;3.366;2023-04-25T04:38:02;10.68;;;4.50;;
20480;SDS011;10399;50.754;3.366;2023-04-25T04:40:29;14.43;;;4.45;;
20480;SDS011;10399;50.754;3.366;2023-04-25T04:42:59;19.40;;;5.18;;
20480;SDS011;10399;50.754;3.366;2023-04-25T04:45:26;16.88;;;5.45;;
20480;SDS011;10399;50.754;3.366;2023-04-25T04:47:54;17.00;;;4.18;;
20480;SDS011;10399;50.754;3.366;2023-04-25T04:50:21;13.50;;;3.90;;
20480;SDS011;10399;50.754;3.366;2023-04-25T04:52:49;14.13;;;3.80;;
20480;SDS011;10399;50.754;3.366;2023-04-25T04:55:16;14.32;;;3.72;;
20480;SDS011;10399;50.754;3.366;2023-04-25T04:57:43;13.05;;;4.43;;
20480;SDS011;10399;50.754;3.366;2023-04-25T05:00:11;17.02;;;5.03;;
20480;SDS011;10399;50.754;3.366;2023-04-25T05:02:38;17.67;;;5.20;;
20480;SDS011;10399;50.754;3.366;2023-04-25T05:05:06;13.93;;;5.20;;
20480;SDS011;10399;50.754;3.366;2023-04-25T05:07:34;14.05;;;5.30;;
20480;SDS011;10399;50.754;3.366;2023-04-25T05:10:01;16.45;;;5.20;;
20480;SDS011;10399;50.754;3.366;2023-04-25T05:12:29;18.25;;;5.45;;
20480;SDS011;10399;50.754;3.366;2023-04-25T05:14:56;19.02;;;7.30;;
20480;SDS011;10399;50.754;3.366;2023-04-25T05:17:24;14.95;;;5.15;;
20480;SDS011;10399;50.754;3.366;2023-04-25T05:19:51;18.02;;;6.90;;
20480;SDS011;10399;50.754;3.366;2023-04-25T05:22:18;23.52;;;5.57;;
20480;SDS011;10399;50.754;3.366;2023-04-25T05:24:44;14.45;;;6.07;;
20480;SDS011;10399;50.754;3.366;2023-04-25T05:27:12;15.52;;;4.85;;
20480;SDS011;10399;50.754;3.366;2023-04-25T05:29:39;13.85;;;5.70;;
20480;SDS011;10399;50.754;3.366;2023-04-25T05:32:06;15.23;;;6.15;;
20480;SDS011;10399;50.754;3.366;2023-04-25T05:34:33;19.33;;;5.32;;
20480;SDS011;10399;50.754;3.366;2023-04-25T05:37:01;16.90;;;6.15;;
20480;SDS011;10399;50.754;3.366;2023-04-25T05:39:28;18.35;;;5.18;;
20480;SDS011;10399;50.754;3.366;2023-04-25T05:41:55;15.75;;;4.72;;
20480;SDS011;10399;50.754;3.366;2023-04-25T05:44:22;17.77;;;5.90;;
20480;SDS011;10399;50.754;3.366;2023-04-25T05:46:49;16.35;;;5.60;;
20480;SDS011;10399;50.754;3.366;2023-04-25T05:49:16;17.02;;;5.35;;
20480;SDS011;10399;50.754;3.366;2023-04-25T05:51:44;10.52;;;4.65;;
20480;SDS011;10399;50.754;3.366;2023-04-25T05:54:11;15.38;;;5.18;;
20480;SDS011;10399;50.754;3.366;2023-04-25T05:56:39;19.95;;;7.15;;
20480;SDS011;10399;50.754;3.366;2023-04-25T05:59:06;14.10;;;4.80;;
20480;SDS011;10399;50.754;3.366;2023-04-25T06:01:33;19.48;;;5.72;;
20480;SDS011;10399;50.754;3.366;2023-04-25T06:04:03;13.95;;;4.90;;
20480;SDS011;10399;50.754;3.366;2023-04-25T06:06:30;12.30;;;4.70;;
20480;SDS011;10399;50.754;3.366;2023-04-25T06:08:58;13.82;;;4.50;;
20480;SDS011;10399;50.754;3.366;2023-04-25T06:11:25;13.43;;;5.25;;
20480;SDS011;10399;50.754;3.366;2023-04-25T06:13:52;19.25;;;5.13;;
20480;SDS011;10399;50.754;3.366;2023-04-25T06:16:19;20.67;;;4.72;;
20480;SDS011;10399;50.754;3.366;2023-04-25T06:18:46;12.57;;;4.95;;
20480;SDS011;10399;50.754;3.366;2023-04-25T06:21:14;14.20;;;4.38;;
20480;SDS011;10399;50.754;3.366;2023-04-25T06:23:40;17.25;;;5.07;;
20480;SDS011;10399;50.754;3.366;2023-04-25T06:26:07;21.10;;;4.72;;
20480;SDS011;10399;50.754;3.366;2023-04-25T06:28:34;18.15;;;5.38;;
20480;SDS011;10399;50.754;3.366;2023-04-25T06:31:01;12.27;;;4.45;;
20480;SDS011;10399;50.754;3.366;2023-04-25T06:33:28;23.38;;;5.95;;
20480;SDS011;10399;50.754;3.366;2023-04-25T06:35:55;15.13;;;4.57;;
20480;SDS011;10399;50.754;3.366;2023-04-25T06:38:22;13.02;;;4.40;;
20480;SDS011;10399;50.754;3.366;2023-04-25T06:40:49;16.85;;;4.90;;
20480;SDS011;10399;50.754;3.366;2023-04-25T06:43:16;22.13;;;4.68;;
20480;SDS011;10399;50.754;3.366;2023-04-25T06:45:43;20.58;;;5.10;;
20480;SDS011;10399;50.754;3.366;2023-04-25T06:48:13;24.02;;;6.03;;
20480;SDS011;10399;50.754;3.366;2023-04-25T06:50:40;18.63;;;5.40;;
20480;SDS011;10399;50.754;3.366;2023-04-25T06:53:07;17.83;;;4.95;;
20480;SDS011;10399;50.754;3.366;2023-04-25T06:55:35;18.67;;;4.82;;
20480;SDS011;10399;50.754;3.366;2023-04-25T06:58:02;18.75;;;4.50;;
20480;SDS011;10399;50.754;3.366;2023-04-25T07:00:29;16.63;;;5.03;;
20480;SDS011;10399;50.754;3.366;2023-04-25T07:02:57;17.63;;;4.22;;
20480;SDS011;10399;50.754;3.366;2023-04-25T07:05:24;16.70;;;4.18;;
20480;SDS011;10399;50.754;3.366;2023-04-25T07:07:51;20.10;;;4.18;;
20480;SDS011;10399;50.754;3.366;2023-04-25T07:10:19;12.10;;;4.22;;
20480;SDS011;10399;50.754;3.366;2023-04-25T07:12:47;16.42;;;4.70;;
20480;SDS011;10399;50.754;3.366;2023-04-25T07:15:14;16.85;;;4.25;;
20480;SDS011;10399;50.754;3.366;2023-04-25T07:17:41;18.15;;;3.90;;
20480;SDS011;10399;50.754;3.366;2023-04-25T07:20:08;15.18;;;4.20;;
20480;SDS011;10399;50.754;3.366;2023-04-25T07:22:36;18.63;;;4.93;;
20480;SDS011;10399;50.754;3.366;2023-04-25T07:25:03;32.13;;;5.20;;
20480;SDS011;10399;50.754;3.366;2023-04-25T07:27:30;15.93;;;3.35;;
20480;SDS011;10399;50.754;3.366;2023-04-25T07:29:58;13.23;;;3.28;;
20480;SDS011;10399;50.754;3.366;2023-04-25T07:32:25;9.63;;;3.58;;
20480;SDS011;10399;50.754;3.366;2023-04-25T07:34:53;11.20;;;3.38;;
20480;SDS011;10399;50.754;3.366;2023-04-25T07:37:20;22.75;;;4.18;;
20480;SDS011;10399;50.754;3.366;2023-04-25T07:39:47;21.27;;;3.85;;
20480;SDS011;10399;50.754;3.366;2023-04-25T07:42:14;11.20;;;3.20;;
20480;SDS011;10399;50.754;3.366;2023-04-25T07:44:41;11.88;;;2.55;;
20480;SDS011;10399;50.754;3.366;2023-04-25T07:47:09;24.27;;;4.10;;
20480;SDS011;10399;50.754;3.366;2023-04-25T07:49:36;16.42;;;3.40;;
20480;SDS011;10399;50.754;3.366;2023-04-25T07:52:04;25.55;;;3.40;;
20480;SDS011;10399;50.754;3.366;2023-04-25T07:54:32;8.98;;;2.50;;
20480;SDS011;10399;50.754;3.366;2023-04-25T07:56:59;14.60;;;3.00;;
20480;SDS011;10399;50.754;3.366;2023-04-25T07:59:27;13.40;;;2.65;;
20480;SDS011;10399;50.754;3.366;2023-04-25T08:01:55;8.68;;;2.80;;
20480;SDS011;10399;50.754;3.366;2023-04-25T08:04:24;10.48;;;2.50;;
20480;SDS011;10399;50.754;3.366;2023-04-25T08:06:52;16.38;;;2.42;;
20480;SDS011;10399;50.754;3.366;2023-04-25T08:09:20;15.45;;;2.63;;
20480;SDS011;10399;50.754;3.366;2023-04-25T08:11:47;11.60;;;3.10;;
20480;SDS011;10399;50.754;3.366;2023-04-25T08:14:15;16.75;;;3.08;;
20480;SDS011;10399;50.754;3.366;2023-04-25T08:16:42;13.55;;;2.38;;
20480;SDS011;10399;50.754;3.366;2023-04-25T08:19:09;9.50;;;2.58;;
20480;SDS011;10399;50.754;3.366;2023-04-25T08:21:37;10.55;;;2.60;;
20480;SDS011;10399;50.754;3.366;2023-04-25T08:24:04;13.02;;;3.00;;
20480;SDS011;10399;50.754;3.366;2023-04-25T08:26:31;22.25;;;2.65;;
20480;SDS011;10399;50.754;3.366;2023-04-25T08:29:00;14.48;;;3.67;;
20480;SDS011;10399;50.754;3.366;2023-04-25T08:31:27;14.43;;;2.75;;
20480;SDS011;10399;50.754;3.366;2023-04-25T08:33:54;13.15;;;2.55;;
20480;SDS011;10399;50.754;3.366;2023-04-25T08:36:21;9.15;;;2.53;;
20480;SDS011;10399;50.754;3.366;2023-04-25T08:39:04;11.02;;;2.15;;
20480;SDS011;10399;50.754;3.366;2023-04-25T08:41:31;13.18;;;2.78;;
20480;SDS011;10399;50.754;3.366;2023-04-25T08:43:58;12.32;;;2.28;;
20480;SDS011;10399;50.754;3.366;2023-04-25T08:46:27;12.50;;;2.53;;
20480;SDS011;10399;50.754;3.366;2023-04-25T08:49:00;9.00;;;2.55;;
20480;SDS011;10399;50.754;3.366;2023-04-25T08:51:30;8.70;;;2.42;;
20480;SDS011;10399;50.754;3.366;2023-04-25T08:54:11;9.57;;;2.60;;
20480;SDS011;10399;50.754;3.366;2023-04-25T08:56:56;15.88;;;1.80;;
20480;SDS011;10399;50.754;3.366;2023-04-25T08:59:28;9.93;;;2.08;;
20480;SDS011;10399;50.754;3.366;2023-04-25T09:01:58;10.88;;;2.20;;
20480;SDS011;10399;50.754;3.366;2023-04-25T09:04:26;8.38;;;1.92;;
20480;SDS011;10399;50.754;3.366;2023-04-25T09:06:53;7.72;;;1.80;;
20480;SDS011;10399;50.754;3.366;2023-04-25T09:09:20;8.55;;;2.10;;
20480;SDS011;10399;50.754;3.366;2023-04-25T09:11:47;6.60;;;1.85;;
20480;SDS011;10399;50.754;3.366;2023-04-25T09:19:23;11.88;;;3.05;;
20480;SDS011;10399;50.754;3.366;2023-04-25T09:22:05;11.25;;;2.75;;
20480;SDS011;10399;50.754;3.366;2023-04-25T09:24:34;7.78;;;2.10;;
20480;SDS011;10399;50.754;3.366;2023-04-25T09:27:09;12.07;;;2.15;;
20480;SDS011;10399;50.754;3.366;2023-04-25T09:29:38;6.78;;;2.10;;
20480;SDS011;10399;50.754;3.366;2023-04-25T09:32:23;9.55;;;2.42;;
20480;SDS011;10399;50.754;3.366;2023-04-25T09:34:53;10.95;;;2.72;;
20480;SDS011;10399;50.754;3.366;2023-04-25T09:37:25;12.25;;;2.55;;
20480;SDS011;10399;50.754;3.366;2023-04-25T09:39:57;9.93;;;2.47;;
20480;SDS011;10399;50.754;3.366;2023-04-25T09:42:27;13.15;;;3.03;;
20480;SDS011;10399;50.754;3.366;2023-04-25T09:44:55;8.00;;;2.30;;
20480;SDS011;10399;50.754;3.366;2023-04-25T09:47:24;10.52;;;2.88;;
20480;SDS011;10399;50.754;3.366;2023-04-25T09:49:53;6.85;;;2.15;;
20480;SDS011;10399;50.754;3.366;2023-04-25T09:52:22;11.88;;;2.28;;
20480;SDS011;10399;50.754;3.366;2023-04-25T09:54:51;8.93;;;2.70;;
20480;SDS011;10399;50.754;3.366;2023-04-25T09:57:19;13.82;;;2.30;;
20480;SDS011;10399;50.754;3.366;2023-04-25T09:59:49;12.43;;;2.28;;
20480;SDS011;10399;50.754;3.366;2023-04-25T10:02:24;9.27;;;2.40;;
20480;SDS011;10399;50.754;3.366;2023-04-25T10:04:53;9.55;;;2.00;;
20480;SDS011;10399;50.754;3.366;2023-04-25T10:07:23;10.32;;;2.60;;
20480;SDS011;10399;50.754;3.366;2023-04-25T10:09:56;12.65;;;2.35;;
20480;SDS011;10399;50.754;3.366;2023-04-25T10:12:28;12.75;;;2.13;;
20480;SDS011;10399;50.754;3.366;2023-04-25T10:14:57;19.02;;;2.33;;
20480;SDS011;10399;50.754;3.366;2023-04-25T10:17:25;10.10;;;2.38;;
20480;SDS011;10399;50.754;3.366;2023-04-25T10:19:56;11.23;;;2.80;;
20480;SDS011;10399;50.754;3.366;2023-04-25T10:22:37;10.40;;;2.05;;
20480;SDS011;10399;50.754;3.366;2023-04-25T10:25:07;13.32;;;2.40;;
20480;SDS011;10399;50.754;3.366;2023-04-25T10:27:35;10.13;;;1.90;;
20480;SDS011;10399;50.754;3.366;2023-04-25T10:30:04;17.38;;;1.98;;
20480;SDS011;10399;50.754;3.366;2023-04-25T10:32:35;15.82;;;2.17;;
20480;SDS011;10399;50.754;3.366;2023-04-25T10:35:12;8.55;;;1.90;;
20480;SDS011;10399;50.754;3.366;2023-04-25T10:40:38;13.25;;;2.25;;
20480;SDS011;10399;50.754;3.366;2023-04-25T10:46:01;6.03;;;1.90;;
20480;SDS011;10399;50.754;3.366;2023-04-25T10:48:30;8.88;;;1.80;;
20480;SDS011;10399;50.754;3.366;2023-04-25T10:51:07;18.55;;;2.83;;
20480;SDS011;10399;50.754;3.366;2023-04-25T10:53:43;31.65;;;4.72;;
20480;SDS011;10399;50.754;3.366;2023-04-25T10:56:17;9.52;;;2.20;;
20480;SDS011;10399;50.754;3.366;2023-04-25T10:58:46;9.73;;;2.45;;
20480;SDS011;10399;50.754;3.366;2023-04-25T11:01:21;8.75;;;2.17;;
20480;SDS011;10399;50.754;3.366;2023-04-25T11:03:56;8.98;;;1.80;;
20480;SDS011;10399;50.754;3.366;2023-04-25T11:06:31;10.45;;;1.67;;
20480;SDS011;10399;50.754;3.366;2023-04-25T11:09:12;11.50;;;1.90;;
20480;SDS011;10399;50.754;3.366;2023-04-25T11:11:40;8.82;;;2.17;;
20480;SDS011;10399;50.754;3.366;2023-04-25T11:14:07;8.00;;;1.83;;
20480;SDS011;10399;50.754;3.366;2023-04-25T11:16:34;16.75;;;2.92;;
20480;SDS011;10399;50.754;3.366;2023-04-25T11:19:02;8.10;;;1.73;;
20480;SDS011;10399;50.754;3.366;2023-04-25T11:21:30;9.35;;;1.88;;
20480;SDS011;10399;50.754;3.366;2023-04-25T11:23:58;9.10;;;2.05;;
20480;SDS011;10399;50.754;3.366;2023-04-25T11:26:26;7.35;;;2.00;;
20480;SDS011;10399;50.754;3.366;2023-04-25T11:28:57;8.38;;;1.70;;
20480;SDS011;10399;50.754;3.366;2023-04-25T11:31:28;9.60;;;2.05;;
20480;SDS011;10399;50.754;3.366;2023-04-25T11:33:59;6.40;;;1.60;;
20480;SDS011;10399;50.754;3.366;2023-04-25T11:36:26;3.42;;;1.52;;
20480;SDS011;10399;50.754;3.366;2023-04-25T11:38:53;7.35;;;1.70;;
20480;SDS011;10399;50.754;3.366;2023-04-25T11:41:21;7.57;;;1.80;;
20480;SDS011;10399;50.754;3.366;2023-04-25T11:43:48;4.28;;;1.70;;
20480;SDS011;10399;50.754;3.366;2023-04-25T11:46:18;12.48;;;2.00;;
20480;SDS011;10399;50.754;3.366;2023-04-25T11:48:46;7.35;;;1.60;;
20480;SDS011;10399;50.754;3.366;2023-04-25T11:51:14;7.28;;;1.50;;
20480;SDS011;10399;50.754;3.366;2023-04-25T11:53:42;3.00;;;1.40;;
20480;SDS011;10399;50.754;3.366;2023-04-25T11:56:11;4.55;;;1.30;;
20480;SDS011;10399;50.754;3.366;2023-04-25T11:58:54;4.22;;;1.77;;
20480;SDS011;10399;50.754;3.366;2023-04-25T12:01:31;4.90;;;1.40;;
20480;SDS011;10399;50.754;3.366;2023-04-25T12:04:14;7.25;;;1.85;;
20480;SDS011;10399;50.754;3.366;2023-04-25T12:06:47;9.90;;;2.33;;
20480;SDS011;10399;50.754;3.366;2023-04-25T12:09:20;1.98;;;1.10;;
20480;SDS011;10399;50.754;3.366;2023-04-25T12:11:54;5.97;;;1.70;;
20480;SDS011;10399;50.754;3.366;2023-04-25T12:14:23;5.13;;;1.60;;
20480;SDS011;10399;50.754;3.366;2023-04-25T12:16:51;4.82;;;1.52;;
20480;SDS011;10399;50.754;3.366;2023-04-25T12:19:20;6.63;;;1.30;;
20480;SDS011;10399;50.754;3.366;2023-04-25T12:21:48;5.85;;;1.45;;
20480;SDS011;10399;50.754;3.366;2023-04-25T12:24:24;8.65;;;2.03;;
20480;SDS011;10399;50.754;3.366;2023-04-25T12:27:01;6.20;;;1.73;;
20480;SDS011;10399;50.754;3.366;2023-04-25T12:29:31;6.65;;;1.45;;
20480;SDS011;10399;50.754;3.366;2023-04-25T12:32:15;9.45;;;1.73;;
20480;SDS011;10399;50.754;3.366;2023-04-25T12:34:43;10.65;;;1.85;;
20480;SDS011;10399;50.754;3.366;2023-04-25T12:37:11;5.75;;;1.80;;
20480;SDS011;10399;50.754;3.366;2023-04-25T12:39:38;9.18;;;1.63;;
20480;SDS011;10399;50.754;3.366;2023-04-25T12:42:05;5.18;;;1.70;;
20480;SDS011;10399;50.754;3.366;2023-04-25T12:44:35;7.80;;;1.38;;
20480;SDS011;10399;50.754;3.366;2023-04-25T12:47:02;9.50;;;2.15;;
20480;SDS011;10399;50.754;3.366;2023-04-25T12:49:30;4.65;;;1.60;;
20480;SDS011;10399;50.754;3.366;2023-04-25T12:51:57;5.13;;;1.38;;
20480;SDS011;10399;50.754;3.366;2023-04-25T12:54:24;6.00;;;1.80;;
20480;SDS011;10399;50.754;3.366;2023-04-25T12:56:52;8.93;;;1.63;;
20480;SDS011;10399;50.754;3.366;2023-04-25T12:59:19;9.32;;;2.05;;
20480;SDS011;10399;50.754;3.366;2023-04-25T13:01:47;11.93;;;2.63;;
20480;SDS011;10399;50.754;3.366;2023-04-25T13:04:14;10.45;;;2.40;;
20480;SDS011;10399;50.754;3.366;2023-04-25T13:06:44;6.45;;;1.95;;
20480;SDS011;10399;50.754;3.366;2023-04-25T13:09:11;4.97;;;1.70;;
20480;SDS011;10399;50.754;3.366;2023-04-25T13:11:39;10.13;;;2.22;;
20480;SDS011;10399;50.754;3.366;2023-04-25T13:14:07;9.18;;;1.80;;
20480;SDS011;10399;50.754;3.366;2023-04-25T13:16:34;10.80;;;2.05;;
20480;SDS011;10399;50.754;3.366;2023-04-25T13:19:01;8.45;;;2.35;;
20480;SDS011;10399;50.754;3.366;2023-04-25T13:21:29;7.78;;;2.30;;
20480;SDS011;10399;50.754;3.366;2023-04-25T13:23:58;6.30;;;2.05;;
20480;SDS011;10399;50.754;3.366;2023-04-25T13:26:25;10.48;;;2.10;;
20480;SDS011;10399;50.754;3.366;2023-04-25T13:28:52;7.43;;;2.00;;
20480;SDS011;10399;50.754;3.366;2023-04-25T13:31:19;6.45;;;2.33;;
20480;SDS011;10399;50.754;3.366;2023-04-25T13:33:46;6.88;;;2.38;;
20480;SDS011;10399;50.754;3.366;2023-04-25T13:36:13;9.02;;;2.40;;
20480;SDS011;10399;50.754;3.366;2023-04-25T13:38:40;7.88;;;1.80;;
20480;SDS011;10399;50.754;3.366;2023-04-25T13:41:10;6.88;;;2.00;;
20480;SDS011;10399;50.754;3.366;2023-04-25T13:43:41;7.78;;;1.77;;
20480;SDS011;10399;50.754;3.366;2023-04-25T13:46:08;9.52;;;1.60;;
20480;SDS011;10399;50.754;3.366;2023-04-25T13:48:57;11.63;;;1.67;;
20480;SDS011;10399;50.754;3.366;2023-04-25T13:51:37;6.18;;;1.83;;
20480;SDS011;10399;50.754;3.366;2023-04-25T13:54:03;9.48;;;1.65;;
20480;SDS011;10399;50.754;3.366;2023-04-25T13:56:30;6.05;;;2.00;;
20480;SDS011;10399;50.754;3.366;2023-04-25T13:58:57;10.65;;;2.03;;
20480;SDS011;10399;50.754;3.366;2023-04-25T14:01:24;6.07;;;1.40;;
20480;SDS011;10399;50.754;3.366;2023-04-25T14:03:54;4.55;;;1.55;;
20480;SDS011;10399;50.754;3.366;2023-04-25T14:06:21;9.00;;;1.98;;
20480;SDS011;10399;50.754;3.366;2023-04-25T14:08:50;6.93;;;1.52;;
20480;SDS011;10399;50.754;3.366;2023-04-25T14:11:17;7.40;;;1.55;;
20480;SDS011;10399;50.754;3.366;2023-04-25T14:13:47;6.60;;;1.52;;
20480;SDS011;10399;50.754;3.366;2023-04-25T14:16:16;7.95;;;1.75;;
20480;SDS011;10399;50.754;3.366;2023-04-25T14:18:43;5.95;;;1.50;;
20480;SDS011;10399;50.754;3.366;2023-04-25T14:21:10;7.45;;;2.03;;
20480;SDS011;10399;50.754;3.366;2023-04-25T14:23:37;7.55;;;1.60;;
20480;SDS011;10399;50.754;3.366;2023-04-25T14:26:04;4.60;;;1.63;;
20480;SDS011;10399;50.754;3.366;2023-04-25T14:28:32;5.68;;;1.55;;
20480;SDS011;10399;50.754;3.366;2023-04-25T14:30:59;6.68;;;1.42;;
20480;SDS011;10399;50.754;3.366;2023-04-25T14:33:27;8.70;;;1.75;;
20480;SDS011;10399;50.754;3.366;2023-04-25T14:35:53;5.18;;;1.67;;
20480;SDS011;10399;50.754;3.366;2023-04-25T14:38:21;7.35;;;1.83;;
20480;SDS011;10399;50.754;3.366;2023-04-25T14:40:49;6.18;;;1.60;;
20480;SDS011;10399;50.754;3.366;2023-04-25T14:43:17;4.28;;;1.40;;
20480;SDS011;10399;50.754;3.366;2023-04-25T14:45:45;6.50;;;1.60;;
20480;SDS011;10399;50.754;3.366;2023-04-25T14:48:12;8.38;;;1.67;;
20480;SDS011;10399;50.754;3.366;2023-04-25T14:50:39;5.60;;;2.10;;
20480;SDS011;10399;50.754;3.366;2023-04-25T14:53:06;4.80;;;1.65;;
20480;SDS011;10399;50.754;3.366;2023-04-25T14:55:34;4.55;;;1.80;;
20480;SDS011;10399;50.754;3.366;2023-04-25T14:58:01;9.00;;;1.88;;